sensor_id;sensor_type;location;lat;lon;timestamp;P1;durP1;ratioP1;P2;durP2;ratioP2
43650;SDS011;29247;50.944;5.382;2023-04-06T00:00:43;18.83;;;10.90;;
43650;SDS011;29247;50.944;5.382;2023-04-06T00:03:08;21.83;;;10.80;;
43650;SDS011;29247;50.944;5.382;2023-04-06T00:05:35;21.17;;;11.70;;
43650;SDS011;29247;50.944;5.382;2023-04-06T00:08:00;19.67;;;11.05;;
43650;SDS011;29247;50.944;5.382;2023-04-06T00:10:29;21.83;;;12.05;;
43650;SDS011;29247;50.944;5.382;2023-04-06T00:12:54;21.92;;;11.38;;
43650;SDS011;29247;50.944;5.382;2023-04-06T00:15:22;18.67;;;10.00;;
43650;SDS011;29247;50.944;5.382;2023-04-06T00:17:50;22.38;;;12.45;;
43650;SDS011;29247;50.944;5.382;2023-04-06T00:20:16;17.67;;;11.27;;
43650;SDS011;29247;50.944;5.382;2023-04-06T00:22:47;23.80;;;11.25;;
43650;SDS011;29247;50.944;5.382;2023-04-06T00:25:15;22.85;;;11.60;;
43650;SDS011;29247;50.944;5.382;2023-04-06T00:27:43;17.73;;;11.13;;
43650;SDS011;29247;50.944;5.382;2023-04-06T00:30:09;19.90;;;12.85;;
43650;SDS011;29247;50.944;5.382;2023-04-06T00:32:35;21.55;;;11.32;;
43650;SDS011;29247;50.944;5.382;2023-04-06T00:35:02;24.05;;;11.95;;
43650;SDS011;29247;50.944;5.382;2023-04-06T00:37:28;23.42;;;12.02;;
43650;SDS011;29247;50.944;5.382;2023-04-06T00:39:53;25.02;;;12.55;;
43650;SDS011;29247;50.944;5.382;2023-04-06T00:42:19;24.38;;;12.75;;
43650;SDS011;29247;50.944;5.382;2023-04-06T00:44:55;20.33;;;12.30;;
43650;SDS011;29247;50.944;5.382;2023-04-06T00:47:25;21.45;;;11.40;;
43650;SDS011;29247;50.944;5.382;2023-04-06T00:49:52;18.15;;;11.05;;
43650;SDS011;29247;50.944;5.382;2023-04-06T00:52:19;22.45;;;12.57;;
43650;SDS011;29247;50.944;5.382;2023-04-06T00:54:48;23.77;;;11.82;;
43650;SDS011;29247;50.944;5.382;2023-04-06T00:57:17;19.63;;;11.45;;
43650;SDS011;29247;50.944;5.382;2023-04-06T00:59:43;22.77;;;11.93;;
43650;SDS011;29247;50.944;5.382;2023-04-06T01:02:12;23.23;;;11.52;;
43650;SDS011;29247;50.944;5.382;2023-04-06T01:04:40;18.02;;;11.57;;
43650;SDS011;29247;50.944;5.382;2023-04-06T01:07:06;20.58;;;11.50;;
43650;SDS011;29247;50.944;5.382;2023-04-06T01:09:32;19.23;;;11.00;;
43650;SDS011;29247;50.944;5.382;2023-04-06T01:11:58;17.85;;;11.23;;
43650;SDS011;29247;50.944;5.382;2023-04-06T01:14:24;23.30;;;12.00;;
43650;SDS011;29247;50.944;5.382;2023-04-06T01:16:50;24.20;;;11.85;;
43650;SDS011;29247;50.944;5.382;2023-04-06T01:19:16;24.35;;;12.20;;
43650;SDS011;29247;50.944;5.382;2023-04-06T01:21:42;19.08;;;10.90;;
43650;SDS011;29247;50.944;5.382;2023-04-06T01:24:10;23.33;;;11.00;;
43650;SDS011;29247;50.944;5.382;2023-04-06T01:26:38;24.42;;;10.88;;
43650;SDS011;29247;50.944;5.382;2023-04-06T01:29:06;22.50;;;11.90;;
43650;SDS011;29247;50.944;5.382;2023-04-06T01:31:32;23.77;;;11.73;;
43650;SDS011;29247;50.944;5.382;2023-04-06T01:33:58;22.48;;;11.45;;
43650;SDS011;29247;50.944;5.382;2023-04-06T01:36:26;24.15;;;11.52;;
43650;SDS011;29247;50.944;5.382;2023-04-06T01:38:52;22.80;;;12.05;;
43650;SDS011;29247;50.944;5.382;2023-04-06T01:41:17;19.48;;;10.77;;
43650;SDS011;29247;50.944;5.382;2023-04-06T01:43:46;20.30;;;10.80;;
43650;SDS011;29247;50.944;5.382;2023-04-06T01:46:12;21.73;;;10.93;;
43650;SDS011;29247;50.944;5.382;2023-04-06T01:48:38;21.48;;;12.25;;
43650;SDS011;29247;50.944;5.382;2023-04-06T01:51:04;19.33;;;11.30;;
43650;SDS011;29247;50.944;5.382;2023-04-06T01:53:30;20.17;;;11.52;;
43650;SDS011;29247;50.944;5.382;2023-04-06T01:55:56;22.15;;;11.52;;
43650;SDS011;29247;50.944;5.382;2023-04-06T01:58:24;20.70;;;11.55;;
43650;SDS011;29247;50.944;5.382;2023-04-06T02:00:50;19.38;;;11.02;;
43650;SDS011;29247;50.944;5.382;2023-04-06T02:03:18;22.25;;;12.02;;
43650;SDS011;29247;50.944;5.382;2023-04-06T02:05:46;22.00;;;11.73;;
43650;SDS011;29247;50.944;5.382;2023-04-06T02:10:45;25.33;;;11.98;;
43650;SDS011;29247;50.944;5.382;2023-04-06T02:13:15;21.70;;;10.75;;
43650;SDS011;29247;50.944;5.382;2023-04-06T02:15:41;20.58;;;11.35;;
43650;SDS011;29247;50.944;5.382;2023-04-06T02:18:25;22.88;;;12.13;;
43650;SDS011;29247;50.944;5.382;2023-04-06T02:20:53;23.63;;;12.45;;
43650;SDS011;29247;50.944;5.382;2023-04-06T02:23:19;20.48;;;11.07;;
43650;SDS011;29247;50.944;5.382;2023-04-06T02:25:47;29.77;;;13.05;;
43650;SDS011;29247;50.944;5.382;2023-04-06T02:28:15;21.15;;;11.27;;
43650;SDS011;29247;50.944;5.382;2023-04-06T02:30:41;22.58;;;11.45;;
43650;SDS011;29247;50.944;5.382;2023-04-06T02:33:07;19.85;;;11.13;;
43650;SDS011;29247;50.944;5.382;2023-04-06T02:35:33;20.48;;;11.85;;
43650;SDS011;29247;50.944;5.382;2023-04-06T02:37:58;23.67;;;12.95;;
43650;SDS011;29247;50.944;5.382;2023-04-06T02:40:24;24.58;;;12.63;;
43650;SDS011;29247;50.944;5.382;2023-04-06T02:42:50;22.35;;;12.25;;
43650;SDS011;29247;50.944;5.382;2023-04-06T02:45:23;23.65;;;10.90;;
43650;SDS011;29247;50.944;5.382;2023-04-06T02:47:51;30.73;;;13.45;;
43650;SDS011;29247;50.944;5.382;2023-04-06T02:50:17;24.85;;;12.60;;
43650;SDS011;29247;50.944;5.382;2023-04-06T02:52:43;23.50;;;12.20;;
43650;SDS011;29247;50.944;5.382;2023-04-06T02:55:11;21.92;;;12.05;;
43650;SDS011;29247;50.944;5.382;2023-04-06T02:57:36;19.23;;;11.82;;
43650;SDS011;29247;50.944;5.382;2023-04-06T03:00:02;21.55;;;12.43;;
43650;SDS011;29247;50.944;5.382;2023-04-06T03:02:28;21.73;;;11.23;;
43650;SDS011;29247;50.944;5.382;2023-04-06T03:04:54;23.30;;;11.73;;
43650;SDS011;29247;50.944;5.382;2023-04-06T03:07:20;25.55;;;12.10;;
43650;SDS011;29247;50.944;5.382;2023-04-06T03:09:46;22.00;;;11.98;;
43650;SDS011;29247;50.944;5.382;2023-04-06T03:12:11;21.52;;;12.00;;
43650;SDS011;29247;50.944;5.382;2023-04-06T03:14:38;23.60;;;11.82;;
43650;SDS011;29247;50.944;5.382;2023-04-06T03:17:03;21.67;;;11.45;;
43650;SDS011;29247;50.944;5.382;2023-04-06T03:19:29;22.33;;;11.48;;
43650;SDS011;29247;50.944;5.382;2023-04-06T03:21:55;20.67;;;11.10;;
43650;SDS011;29247;50.944;5.382;2023-04-06T03:24:23;25.73;;;11.68;;
43650;SDS011;29247;50.944;5.382;2023-04-06T03:26:54;20.80;;;11.35;;
43650;SDS011;29247;50.944;5.382;2023-04-06T03:29:20;21.90;;;12.25;;
43650;SDS011;29247;50.944;5.382;2023-04-06T03:31:46;21.05;;;11.05;;
43650;SDS011;29247;50.944;5.382;2023-04-06T03:34:11;20.98;;;9.82;;
43650;SDS011;29247;50.944;5.382;2023-04-06T03:36:38;20.63;;;12.40;;
43650;SDS011;29247;50.944;5.382;2023-04-06T03:39:04;21.83;;;12.15;;
43650;SDS011;29247;50.944;5.382;2023-04-06T03:41:30;20.88;;;10.73;;
43650;SDS011;29247;50.944;5.382;2023-04-06T03:43:58;21.52;;;11.77;;
43650;SDS011;29247;50.944;5.382;2023-04-06T03:46:24;19.35;;;10.45;;
43650;SDS011;29247;50.944;5.382;2023-04-06T03:48:52;16.90;;;10.20;;
43650;SDS011;29247;50.944;5.382;2023-04-06T03:51:18;23.30;;;10.25;;
43650;SDS011;29247;50.944;5.382;2023-04-06T03:53:43;22.48;;;11.55;;
43650;SDS011;29247;50.944;5.382;2023-04-06T03:56:09;23.20;;;10.65;;
43650;SDS011;29247;50.944;5.382;2023-04-06T03:58:35;21.80;;;11.50;;
43650;SDS011;29247;50.944;5.382;2023-04-06T04:01:00;19.38;;;10.70;;
43650;SDS011;29247;50.944;5.382;2023-04-06T04:03:26;20.33;;;10.55;;
43650;SDS011;29247;50.944;5.382;2023-04-06T04:05:52;22.02;;;11.82;;
43650;SDS011;29247;50.944;5.382;2023-04-06T04:08:20;21.42;;;10.52;;
43650;SDS011;29247;50.944;5.382;2023-04-06T04:10:46;20.92;;;10.82;;
43650;SDS011;29247;50.944;5.382;2023-04-06T04:13:14;20.08;;;10.15;;
43650;SDS011;29247;50.944;5.382;2023-04-06T04:18:12;23.80;;;9.60;;
43650;SDS011;29247;50.944;5.382;2023-04-06T04:20:38;18.35;;;10.20;;
43650;SDS011;29247;50.944;5.382;2023-04-06T04:23:06;16.83;;;10.20;;
43650;SDS011;29247;50.944;5.382;2023-04-06T04:25:35;17.85;;;9.60;;
43650;SDS011;29247;50.944;5.382;2023-04-06T04:28:01;19.15;;;10.40;;
43650;SDS011;29247;50.944;5.382;2023-04-06T04:30:27;20.20;;;9.68;;
43650;SDS011;29247;50.944;5.382;2023-04-06T04:32:52;21.23;;;10.80;;
43650;SDS011;29247;50.944;5.382;2023-04-06T04:35:21;21.45;;;9.98;;
43650;SDS011;29247;50.944;5.382;2023-04-06T04:37:46;20.55;;;10.00;;
43650;SDS011;29247;50.944;5.382;2023-04-06T04:40:12;19.83;;;10.65;;
43650;SDS011;29247;50.944;5.382;2023-04-06T04:42:38;21.27;;;10.15;;
43650;SDS011;29247;50.944;5.382;2023-04-06T04:45:04;23.55;;;11.10;;
43650;SDS011;29247;50.944;5.382;2023-04-06T04:47:30;19.25;;;10.18;;
43650;SDS011;29247;50.944;5.382;2023-04-06T04:50:01;18.90;;;9.75;;
43650;SDS011;29247;50.944;5.382;2023-04-06T04:52:27;21.52;;;10.13;;
43650;SDS011;29247;50.944;5.382;2023-04-06T04:54:52;17.27;;;9.85;;
43650;SDS011;29247;50.944;5.382;2023-04-06T04:57:21;17.60;;;9.98;;
43650;SDS011;29247;50.944;5.382;2023-04-06T04:59:47;15.98;;;9.38;;
43650;SDS011;29247;50.944;5.382;2023-04-06T05:02:15;19.92;;;9.75;;
43650;SDS011;29247;50.944;5.382;2023-04-06T05:04:41;19.90;;;9.60;;
43650;SDS011;29247;50.944;5.382;2023-04-06T05:07:07;17.33;;;9.02;;
43650;SDS011;29247;50.944;5.382;2023-04-06T05:09:34;17.38;;;10.35;;
43650;SDS011;29247;50.944;5.382;2023-04-06T05:12:00;19.55;;;9.75;;
43650;SDS011;29247;50.944;5.382;2023-04-06T05:14:28;20.90;;;9.70;;
43650;SDS011;29247;50.944;5.382;2023-04-06T05:16:57;19.27;;;10.15;;
43650;SDS011;29247;50.944;5.382;2023-04-06T05:19:23;16.73;;;9.05;;
43650;SDS011;29247;50.944;5.382;2023-04-06T05:21:48;21.00;;;9.82;;
43650;SDS011;29247;50.944;5.382;2023-04-06T05:24:14;18.13;;;9.40;;
43650;SDS011;29247;50.944;5.382;2023-04-06T05:26:42;21.45;;;10.20;;
43650;SDS011;29247;50.944;5.382;2023-04-06T05:29:11;18.00;;;10.18;;
43650;SDS011;29247;50.944;5.382;2023-04-06T05:31:37;22.30;;;9.88;;
43650;SDS011;29247;50.944;5.382;2023-04-06T05:34:03;16.02;;;8.52;;
43650;SDS011;29247;50.944;5.382;2023-04-06T05:36:28;17.15;;;9.35;;
43650;SDS011;29247;50.944;5.382;2023-04-06T05:38:57;18.40;;;9.00;;
43650;SDS011;29247;50.944;5.382;2023-04-06T05:41:26;15.80;;;9.25;;
43650;SDS011;29247;50.944;5.382;2023-04-06T05:43:54;14.68;;;7.85;;
43650;SDS011;29247;50.944;5.382;2023-04-06T05:46:22;20.73;;;8.30;;
43650;SDS011;29247;50.944;5.382;2023-04-06T05:48:51;16.17;;;9.05;;
43650;SDS011;29247;50.944;5.382;2023-04-06T05:51:22;18.23;;;9.70;;
43650;SDS011;29247;50.944;5.382;2023-04-06T05:53:47;24.23;;;9.65;;
43650;SDS011;29247;50.944;5.382;2023-04-06T05:56:13;17.60;;;9.20;;
43650;SDS011;29247;50.944;5.382;2023-04-06T05:58:39;18.65;;;9.48;;
43650;SDS011;29247;50.944;5.382;2023-04-06T06:01:05;21.00;;;9.82;;
43650;SDS011;29247;50.944;5.382;2023-04-06T06:03:31;20.08;;;10.48;;
43650;SDS011;29247;50.944;5.382;2023-04-06T06:06:03;18.73;;;9.35;;
43650;SDS011;29247;50.944;5.382;2023-04-06T06:08:30;19.17;;;9.57;;
43650;SDS011;29247;50.944;5.382;2023-04-06T06:10:56;17.20;;;9.25;;
43650;SDS011;29247;50.944;5.382;2023-04-06T06:13:24;17.13;;;9.35;;
43650;SDS011;29247;50.944;5.382;2023-04-06T06:15:50;20.30;;;9.45;;
43650;SDS011;29247;50.944;5.382;2023-04-06T06:18:18;16.60;;;8.40;;
43650;SDS011;29247;50.944;5.382;2023-04-06T06:20:44;18.70;;;10.07;;
43650;SDS011;29247;50.944;5.382;2023-04-06T06:23:10;17.08;;;8.70;;
43650;SDS011;29247;50.944;5.382;2023-04-06T06:25:39;17.65;;;9.43;;
43650;SDS011;29247;50.944;5.382;2023-04-06T06:28:07;16.77;;;8.63;;
43650;SDS011;29247;50.944;5.382;2023-04-06T06:30:35;20.02;;;9.10;;
43650;SDS011;29247;50.944;5.382;2023-04-06T06:33:01;18.55;;;9.52;;
43650;SDS011;29247;50.944;5.382;2023-04-06T06:35:27;17.23;;;8.13;;
43650;SDS011;29247;50.944;5.382;2023-04-06T06:37:53;18.75;;;8.50;;
43650;SDS011;29247;50.944;5.382;2023-04-06T06:40:22;16.98;;;9.30;;
43650;SDS011;29247;50.944;5.382;2023-04-06T06:42:49;22.67;;;9.70;;
43650;SDS011;29247;50.944;5.382;2023-04-06T06:45:15;17.55;;;9.43;;
43650;SDS011;29247;50.944;5.382;2023-04-06T06:47:41;19.75;;;9.55;;
43650;SDS011;29247;50.944;5.382;2023-04-06T06:50:10;19.48;;;10.02;;
43650;SDS011;29247;50.944;5.382;2023-04-06T06:52:35;16.40;;;8.30;;
43650;SDS011;29247;50.944;5.382;2023-04-06T06:55:02;18.77;;;9.57;;
43650;SDS011;29247;50.944;5.382;2023-04-06T06:57:28;15.77;;;8.95;;
43650;SDS011;29247;50.944;5.382;2023-04-06T06:59:54;16.63;;;8.07;;
43650;SDS011;29247;50.944;5.382;2023-04-06T07:02:25;19.33;;;9.48;;
43650;SDS011;29247;50.944;5.382;2023-04-06T07:04:53;18.13;;;8.63;;
43650;SDS011;29247;50.944;5.382;2023-04-06T07:07:19;18.27;;;8.63;;
43650;SDS011;29247;50.944;5.382;2023-04-06T07:09:48;18.67;;;8.57;;
43650;SDS011;29247;50.944;5.382;2023-04-06T07:12:13;14.68;;;7.43;;
43650;SDS011;29247;50.944;5.382;2023-04-06T07:14:40;17.27;;;8.13;;
43650;SDS011;29247;50.944;5.382;2023-04-06T07:17:06;16.92;;;8.82;;
43650;SDS011;29247;50.944;5.382;2023-04-06T07:19:36;14.15;;;7.93;;
43650;SDS011;29247;50.944;5.382;2023-04-06T07:22:01;14.48;;;7.35;;
43650;SDS011;29247;50.944;5.382;2023-04-06T07:24:28;14.30;;;7.78;;
43650;SDS011;29247;50.944;5.382;2023-04-06T07:26:57;21.92;;;9.70;;
43650;SDS011;29247;50.944;5.382;2023-04-06T07:29:28;15.70;;;8.57;;
43650;SDS011;29247;50.944;5.382;2023-04-06T07:31:54;17.10;;;7.20;;
43650;SDS011;29247;50.944;5.382;2023-04-06T07:34:21;20.95;;;8.35;;
43650;SDS011;29247;50.944;5.382;2023-04-06T07:36:47;15.93;;;8.02;;
43650;SDS011;29247;50.944;5.382;2023-04-06T07:39:12;17.10;;;8.02;;
43650;SDS011;29247;50.944;5.382;2023-04-06T07:41:38;18.83;;;8.02;;
43650;SDS011;29247;50.944;5.382;2023-04-06T07:44:04;18.13;;;7.50;;
43650;SDS011;29247;50.944;5.382;2023-04-06T07:46:30;16.90;;;8.50;;
43650;SDS011;29247;50.944;5.382;2023-04-06T07:48:59;15.32;;;7.63;;
43650;SDS011;29247;50.944;5.382;2023-04-06T07:51:28;16.60;;;7.75;;
43650;SDS011;29247;50.944;5.382;2023-04-06T07:53:56;15.55;;;7.55;;
43650;SDS011;29247;50.944;5.382;2023-04-06T07:56:22;16.27;;;7.57;;
43650;SDS011;29247;50.944;5.382;2023-04-06T07:58:48;16.23;;;8.52;;
43650;SDS011;29247;50.944;5.382;2023-04-06T08:01:14;14.30;;;7.63;;
43650;SDS011;29247;50.944;5.382;2023-04-06T08:03:40;15.02;;;7.63;;
43650;SDS011;29247;50.944;5.382;2023-04-06T08:06:08;12.98;;;6.65;;
43650;SDS011;29247;50.944;5.382;2023-04-06T08:08:36;17.60;;;8.20;;
43650;SDS011;29247;50.944;5.382;2023-04-06T08:11:07;13.00;;;7.38;;
43650;SDS011;29247;50.944;5.382;2023-04-06T08:13:33;12.60;;;6.85;;
43650;SDS011;29247;50.944;5.382;2023-04-06T08:16:00;15.15;;;7.20;;
43650;SDS011;29247;50.944;5.382;2023-04-06T08:18:26;13.88;;;6.65;;
43650;SDS011;29247;50.944;5.382;2023-04-06T08:20:52;13.15;;;6.35;;
43650;SDS011;29247;50.944;5.382;2023-04-06T08:23:20;14.43;;;6.82;;
43650;SDS011;29247;50.944;5.382;2023-04-06T08:25:46;14.23;;;6.95;;
43650;SDS011;29247;50.944;5.382;2023-04-06T08:28:16;15.25;;;7.13;;
43650;SDS011;29247;50.944;5.382;2023-04-06T08:33:12;12.82;;;6.22;;
43650;SDS011;29247;50.944;5.382;2023-04-06T08:35:41;17.27;;;7.18;;
43650;SDS011;29247;50.944;5.382;2023-04-06T08:38:06;18.52;;;7.50;;
43650;SDS011;29247;50.944;5.382;2023-04-06T08:40:41;11.43;;;6.32;;
43650;SDS011;29247;50.944;5.382;2023-04-06T08:43:09;13.82;;;7.07;;
43650;SDS011;29247;50.944;5.382;2023-04-06T08:45:40;18.60;;;7.27;;
43650;SDS011;29247;50.944;5.382;2023-04-06T08:48:09;13.63;;;7.07;;
43650;SDS011;29247;50.944;5.382;2023-04-06T08:50:38;14.10;;;6.80;;
43650;SDS011;29247;50.944;5.382;2023-04-06T08:53:07;18.20;;;7.90;;
43650;SDS011;29247;50.944;5.382;2023-04-06T08:55:33;13.07;;;6.80;;
43650;SDS011;29247;50.944;5.382;2023-04-06T08:58:00;13.02;;;7.25;;
43650;SDS011;29247;50.944;5.382;2023-04-06T09:00:26;13.05;;;7.07;;
43650;SDS011;29247;50.944;5.382;2023-04-06T09:02:53;15.73;;;6.88;;
43650;SDS011;29247;50.944;5.382;2023-04-06T09:05:23;17.33;;;6.75;;
43650;SDS011;29247;50.944;5.382;2023-04-06T09:07:50;14.13;;;7.10;;
43650;SDS011;29247;50.944;5.382;2023-04-06T09:10:16;14.82;;;7.10;;
43650;SDS011;29247;50.944;5.382;2023-04-06T09:12:45;19.38;;;6.82;;
43650;SDS011;29247;50.944;5.382;2023-04-06T09:15:20;14.43;;;5.88;;
43650;SDS011;29247;50.944;5.382;2023-04-06T09:17:47;11.45;;;5.97;;
43650;SDS011;29247;50.944;5.382;2023-04-06T09:20:12;14.85;;;6.60;;
43650;SDS011;29247;50.944;5.382;2023-04-06T09:22:47;9.95;;;5.47;;
43650;SDS011;29247;50.944;5.382;2023-04-06T09:25:18;11.15;;;6.22;;
43650;SDS011;29247;50.944;5.382;2023-04-06T09:27:48;11.82;;;6.30;;
43650;SDS011;29247;50.944;5.382;2023-04-06T09:30:25;12.20;;;5.28;;
43650;SDS011;29247;50.944;5.382;2023-04-06T09:32:55;16.45;;;5.95;;
43650;SDS011;29247;50.944;5.382;2023-04-06T09:35:22;11.57;;;5.05;;
43650;SDS011;29247;50.944;5.382;2023-04-06T09:37:48;13.00;;;5.72;;
43650;SDS011;29247;50.944;5.382;2023-04-06T09:40:18;13.30;;;5.32;;
43650;SDS011;29247;50.944;5.382;2023-04-06T09:42:45;14.52;;;5.38;;
43650;SDS011;29247;50.944;5.382;2023-04-06T09:45:12;10.18;;;5.30;;
43650;SDS011;29247;50.944;5.382;2023-04-06T09:47:42;9.40;;;4.82;;
43650;SDS011;29247;50.944;5.382;2023-04-06T09:50:13;9.00;;;4.20;;
43650;SDS011;29247;50.944;5.382;2023-04-06T09:52:42;8.95;;;4.20;;
43650;SDS011;29247;50.944;5.382;2023-04-06T09:55:30;7.72;;;4.20;;
43650;SDS011;29247;50.944;5.382;2023-04-06T09:58:02;14.25;;;4.90;;
43650;SDS011;29247;50.944;5.382;2023-04-06T10:00:30;10.30;;;4.70;;
43650;SDS011;29247;50.944;5.382;2023-04-06T10:08:15;9.80;;;4.63;;
43650;SDS011;29247;50.944;5.382;2023-04-06T10:10:46;8.85;;;4.85;;
43650;SDS011;29247;50.944;5.382;2023-04-06T10:13:12;8.20;;;4.80;;
43650;SDS011;29247;50.944;5.382;2023-04-06T10:15:41;9.60;;;4.70;;
43650;SDS011;29247;50.944;5.382;2023-04-06T10:18:10;9.18;;;4.70;;
43650;SDS011;29247;50.944;5.382;2023-04-06T10:20:41;8.27;;;4.95;;
43650;SDS011;29247;50.944;5.382;2023-04-06T10:23:24;9.88;;;5.50;;
43650;SDS011;29247;50.944;5.382;2023-04-06T10:26:00;9.20;;;4.95;;
43650;SDS011;29247;50.944;5.382;2023-04-06T10:28:35;7.53;;;5.03;;
43650;SDS011;29247;50.944;5.382;2023-04-06T10:31:04;9.25;;;5.28;;
43650;SDS011;29247;50.944;5.382;2023-04-06T10:33:30;13.13;;;5.25;;
43650;SDS011;29247;50.944;5.382;2023-04-06T10:36:08;8.02;;;5.45;;
43650;SDS011;29247;50.944;5.382;2023-04-06T10:38:38;9.85;;;5.35;;
43650;SDS011;29247;50.944;5.382;2023-04-06T10:41:07;8.80;;;5.15;;
43650;SDS011;29247;50.944;5.382;2023-04-06T10:43:35;11.48;;;4.95;;
43650;SDS011;29247;50.944;5.382;2023-04-06T10:46:03;9.15;;;4.88;;
43650;SDS011;29247;50.944;5.382;2023-04-06T10:51:07;8.63;;;4.35;;
43650;SDS011;29247;50.944;5.382;2023-04-06T10:53:37;7.50;;;3.95;;
43650;SDS011;29247;50.944;5.382;2023-04-06T10:56:04;8.05;;;4.80;;
43650;SDS011;29247;50.944;5.382;2023-04-06T10:58:38;8.52;;;4.68;;
43650;SDS011;29247;50.944;5.382;2023-04-06T11:01:12;9.85;;;4.75;;
43650;SDS011;29247;50.944;5.382;2023-04-06T11:03:43;9.80;;;4.53;;
43650;SDS011;29247;50.944;5.382;2023-04-06T11:06:22;10.27;;;5.22;;
43650;SDS011;29247;50.944;5.382;2023-04-06T11:08:52;9.10;;;4.32;;
43650;SDS011;29247;50.944;5.382;2023-04-06T11:11:22;7.97;;;4.57;;
43650;SDS011;29247;50.944;5.382;2023-04-06T11:13:51;7.30;;;4.20;;
43650;SDS011;29247;50.944;5.382;2023-04-06T11:16:28;9.25;;;4.32;;
43650;SDS011;29247;50.944;5.382;2023-04-06T11:19:04;7.28;;;3.83;;
43650;SDS011;29247;50.944;5.382;2023-04-06T11:24:08;8.65;;;4.15;;
43650;SDS011;29247;50.944;5.382;2023-04-06T11:29:07;8.70;;;4.03;;
43650;SDS011;29247;50.944;5.382;2023-04-06T11:31:42;10.05;;;4.45;;
43650;SDS011;29247;50.944;5.382;2023-04-06T11:34:17;8.68;;;4.45;;
43650;SDS011;29247;50.944;5.382;2023-04-06T11:36:53;10.02;;;4.75;;
43650;SDS011;29247;50.944;5.382;2023-04-06T11:39:24;11.25;;;4.43;;
43650;SDS011;29247;50.944;5.382;2023-04-06T11:41:52;8.98;;;4.35;;
43650;SDS011;29247;50.944;5.382;2023-04-06T11:47:10;12.70;;;4.32;;
43650;SDS011;29247;50.944;5.382;2023-04-06T11:49:40;11.82;;;5.25;;
43650;SDS011;29247;50.944;5.382;2023-04-06T11:52:19;7.82;;;4.63;;
43650;SDS011;29247;50.944;5.382;2023-04-06T11:54:49;7.55;;;3.88;;
43650;SDS011;29247;50.944;5.382;2023-04-06T11:57:17;7.85;;;4.30;;
43650;SDS011;29247;50.944;5.382;2023-04-06T11:59:43;7.82;;;4.53;;
43650;SDS011;29247;50.944;5.382;2023-04-06T12:02:10;7.30;;;4.35;;
43650;SDS011;29247;50.944;5.382;2023-04-06T12:04:36;7.82;;;4.80;;
43650;SDS011;29247;50.944;5.382;2023-04-06T12:07:03;7.30;;;4.18;;
43650;SDS011;29247;50.944;5.382;2023-04-06T12:09:31;8.05;;;4.43;;
43650;SDS011;29247;50.944;5.382;2023-04-06T12:11:57;9.35;;;4.68;;
43650;SDS011;29247;50.944;5.382;2023-04-06T12:14:26;8.88;;;4.30;;
43650;SDS011;29247;50.944;5.382;2023-04-06T12:16:51;6.93;;;3.92;;
43650;SDS011;29247;50.944;5.382;2023-04-06T12:19:18;7.05;;;4.13;;
43650;SDS011;29247;50.944;5.382;2023-04-06T12:21:43;8.82;;;4.38;;
43650;SDS011;29247;50.944;5.382;2023-04-06T12:24:12;9.15;;;4.15;;
43650;SDS011;29247;50.944;5.382;2023-04-06T12:26:42;8.00;;;3.92;;
43650;SDS011;29247;50.944;5.382;2023-04-06T12:29:08;6.65;;;3.83;;
43650;SDS011;29247;50.944;5.382;2023-04-06T12:31:34;6.28;;;3.65;;
43650;SDS011;29247;50.944;5.382;2023-04-06T12:34:01;6.55;;;4.25;;
43650;SDS011;29247;50.944;5.382;2023-04-06T12:36:28;5.15;;;3.55;;
43650;SDS011;29247;50.944;5.382;2023-04-06T12:38:57;8.82;;;3.72;;
43650;SDS011;29247;50.944;5.382;2023-04-06T12:41:23;9.18;;;4.95;;
43650;SDS011;29247;50.944;5.382;2023-04-06T12:43:49;5.95;;;4.22;;
43650;SDS011;29247;50.944;5.382;2023-04-06T12:46:15;7.25;;;4.07;;
43650;SDS011;29247;50.944;5.382;2023-04-06T12:48:42;6.22;;;4.00;;
43650;SDS011;29247;50.944;5.382;2023-04-06T12:51:07;7.60;;;4.47;;
43650;SDS011;29247;50.944;5.382;2023-04-06T12:53:36;9.40;;;4.63;;
43650;SDS011;29247;50.944;5.382;2023-04-06T12:56:02;5.88;;;3.47;;
43650;SDS011;29247;50.944;5.382;2023-04-06T12:58:36;6.30;;;3.92;;
43650;SDS011;29247;50.944;5.382;2023-04-06T13:01:05;5.65;;;4.35;;
43650;SDS011;29247;50.944;5.382;2023-04-06T13:03:32;6.05;;;4.25;;
43650;SDS011;29247;50.944;5.382;2023-04-06T13:05:58;9.05;;;3.90;;
43650;SDS011;29247;50.944;5.382;2023-04-06T13:08:25;4.85;;;3.25;;
43650;SDS011;29247;50.944;5.382;2023-04-06T13:10:51;7.50;;;4.43;;
43650;SDS011;29247;50.944;5.382;2023-04-06T13:13:23;6.70;;;4.32;;
43650;SDS011;29247;50.944;5.382;2023-04-06T13:16:00;9.00;;;4.60;;
43650;SDS011;29247;50.944;5.382;2023-04-06T13:18:28;6.47;;;4.05;;
43650;SDS011;29247;50.944;5.382;2023-04-06T13:20:58;7.70;;;4.10;;
43650;SDS011;29247;50.944;5.382;2023-04-06T13:23:29;7.35;;;4.50;;
43650;SDS011;29247;50.944;5.382;2023-04-06T13:28:33;7.55;;;4.30;;
43650;SDS011;29247;50.944;5.382;2023-04-06T13:31:02;6.55;;;3.63;;
43650;SDS011;29247;50.944;5.382;2023-04-06T13:33:29;8.77;;;4.00;;
43650;SDS011;29247;50.944;5.382;2023-04-06T13:35:58;7.10;;;4.28;;
43650;SDS011;29247;50.944;5.382;2023-04-06T13:38:24;6.50;;;3.85;;
43650;SDS011;29247;50.944;5.382;2023-04-06T13:40:50;6.50;;;4.05;;
43650;SDS011;29247;50.944;5.382;2023-04-06T13:43:16;6.50;;;4.28;;
43650;SDS011;29247;50.944;5.382;2023-04-06T13:45:48;5.68;;;3.80;;
43650;SDS011;29247;50.944;5.382;2023-04-06T13:48:17;6.88;;;3.95;;
43650;SDS011;29247;50.944;5.382;2023-04-06T13:50:46;7.03;;;4.10;;
43650;SDS011;29247;50.944;5.382;2023-04-06T13:53:12;9.43;;;5.90;;
43650;SDS011;29247;50.944;5.382;2023-04-06T13:55:38;7.25;;;4.15;;
43650;SDS011;29247;50.944;5.382;2023-04-06T13:58:03;5.88;;;4.13;;
43650;SDS011;29247;50.944;5.382;2023-04-06T14:00:31;6.95;;;4.32;;
43650;SDS011;29247;50.944;5.382;2023-04-06T14:02:59;6.82;;;4.20;;
43650;SDS011;29247;50.944;5.382;2023-04-06T14:05:31;9.50;;;4.50;;
43650;SDS011;29247;50.944;5.382;2023-04-06T14:07:58;6.38;;;4.50;;
43650;SDS011;29247;50.944;5.382;2023-04-06T14:10:23;7.03;;;4.43;;
43650;SDS011;29247;50.944;5.382;2023-04-06T14:12:52;6.53;;;3.83;;
43650;SDS011;29247;50.944;5.382;2023-04-06T14:15:20;6.50;;;3.47;;
43650;SDS011;29247;50.944;5.382;2023-04-06T14:17:46;6.22;;;4.43;;
43650;SDS011;29247;50.944;5.382;2023-04-06T14:20:12;7.82;;;4.43;;
43650;SDS011;29247;50.944;5.382;2023-04-06T14:22:40;6.82;;;4.03;;
43650;SDS011;29247;50.944;5.382;2023-04-06T14:25:07;5.20;;;4.30;;
43650;SDS011;29247;50.944;5.382;2023-04-06T14:27:34;5.63;;;3.35;;
43650;SDS011;29247;50.944;5.382;2023-04-06T14:30:02;6.22;;;4.15;;
43650;SDS011;29247;50.944;5.382;2023-04-06T14:32:28;7.07;;;3.97;;
43650;SDS011;29247;50.944;5.382;2023-04-06T14:34:54;6.13;;;3.88;;
43650;SDS011;29247;50.944;5.382;2023-04-06T14:37:20;10.60;;;4.53;;
43650;SDS011;29247;50.944;5.382;2023-04-06T14:39:47;5.75;;;3.80;;
43650;SDS011;29247;50.944;5.382;2023-04-06T14:42:12;6.53;;;3.95;;
43650;SDS011;29247;50.944;5.382;2023-04-06T14:44:41;6.93;;;4.13;;
43650;SDS011;29247;50.944;5.382;2023-04-06T14:47:11;7.47;;;4.22;;
43650;SDS011;29247;50.944;5.382;2023-04-06T14:49:40;7.28;;;4.50;;
43650;SDS011;29247;50.944;5.382;2023-04-06T14:52:06;5.32;;;3.42;;
43650;SDS011;29247;50.944;5.382;2023-04-06T14:54:36;5.80;;;4.03;;
43650;SDS011;29247;50.944;5.382;2023-04-06T14:57:02;6.63;;;4.50;;
43650;SDS011;29247;50.944;5.382;2023-04-06T14:59:30;6.82;;;4.35;;
43650;SDS011;29247;50.944;5.382;2023-04-06T15:01:57;5.53;;;3.65;;